createdAt,value
2019-05-02T00:01:37.704Z,25.77
2019-05-02T00:04:07.323Z,25.25
2019-05-02T00:06:38.018Z,24.83
2019-05-02T00:09:11.025Z,20.80
2019-05-02T00:11:40.594Z,24.40
2019-05-02T00:14:10.223Z,20.60
2019-05-02T00:16:39.812Z,23.93
2019-05-02T00:19:13.938Z,23.62
2019-05-02T00:21:43.027Z,22.60
2019-05-02T00:24:13.947Z,27.43
2019-05-02T00:26:43.525Z,19.65
2019-05-02T00:29:13.051Z,22.70
2019-05-02T00:31:47.009Z,26.50
2019-05-02T00:34:14.593Z,23.05
2019-05-02T00:36:44.593Z,29.55
2019-05-02T00:39:15.234Z,22.02
2019-05-02T00:41:44.770Z,21.40
2019-05-02T00:44:14.634Z,24.95
2019-05-02T00:46:44.763Z,23.60
2019-05-02T00:49:14.883Z,27.20
2019-05-02T00:51:44.783Z,19.25
2019-05-02T00:54:19.143Z,27.32
2019-05-02T00:56:46.546Z,30.40
2019-05-02T00:59:16.202Z,28.38
2019-05-02T01:01:52.635Z,25.93
2019-05-02T01:04:47.236Z,22.00
2019-05-02T01:07:20.487Z,24.83
2019-05-02T01:09:48.101Z,28.03
2019-05-02T01:12:26.142Z,27.87
2019-05-02T01:14:49.273Z,27.90
2019-05-02T01:17:18.998Z,25.07
2019-05-02T01:19:51.489Z,30.60
2019-05-02T01:22:19.965Z,24.40
2019-05-02T01:24:49.503Z,25.93
2019-05-02T01:27:42.585Z,27.53
2019-05-02T01:30:30.331Z,25.10
2019-05-02T01:33:25.088Z,24.03
2019-05-02T01:36:19.891Z,24.60
2019-05-02T01:38:50.377Z,24.50
2019-05-02T01:41:23.944Z,21.43
2019-05-02T01:43:54.957Z,25.75
2019-05-02T01:46:24.194Z,25.80
2019-05-02T01:48:54.340Z,22.77
2019-05-02T01:51:24.129Z,26.90
2019-05-02T01:53:53.994Z,24.87
2019-05-02T01:56:23.655Z,22.27
2019-05-02T01:58:57.620Z,19.23
2019-05-02T02:01:24.383Z,22.43
2019-05-02T02:03:53.922Z,21.57
2019-05-02T02:06:23.522Z,19.33
2019-05-02T02:08:53.151Z,23.65
2019-05-02T02:11:22.895Z,22.80
2019-05-02T02:13:52.438Z,24.95
2019-05-02T02:16:22.026Z,23.00
2019-05-02T02:18:58.998Z,23.80
2019-05-02T02:21:36.138Z,18.27
2019-05-02T02:24:09.895Z,18.73
2019-05-02T02:26:39.494Z,21.33
2019-05-02T02:29:09.394Z,22.07
2019-05-02T02:31:46.425Z,25.23
2019-05-02T02:34:10.182Z,21.50
2019-05-02T02:36:39.716Z,20.33
2019-05-02T02:39:14.188Z,19.23
2019-05-02T02:41:45.237Z,20.33
2019-05-02T02:44:21.938Z,23.53
2019-05-02T02:46:51.955Z,25.53
2019-05-02T02:49:24.360Z,30.00
2019-05-02T02:51:58.094Z,21.43
2019-05-02T02:54:23.920Z,24.00
2019-05-02T02:56:53.457Z,21.60
2019-05-02T02:59:26.150Z,25.03
2019-05-02T03:01:54.182Z,17.17
2019-05-02T03:04:23.701Z,18.70
2019-05-02T03:06:53.217Z,24.17
2019-05-02T03:09:26.564Z,23.07
2019-05-02T03:12:12.199Z,18.25
2019-05-02T03:14:47.510Z,19.77
2019-05-02T03:17:20.634Z,17.02
2019-05-02T03:19:54.367Z,20.60
2019-05-02T03:22:20.770Z,22.87
2019-05-02T03:24:50.347Z,19.67
2019-05-02T03:27:19.876Z,19.10
2019-05-02T03:29:49.977Z,19.15
2019-05-02T03:32:31.911Z,19.57
2019-05-02T03:34:53.442Z,19.00
2019-05-02T03:37:21.984Z,19.43
2019-05-02T03:39:57.585Z,18.80
2019-05-02T03:42:24.180Z,21.57
2019-05-02T03:44:56.203Z,20.90
2019-05-02T03:47:25.107Z,26.33
2019-05-02T03:49:54.681Z,21.37
2019-05-02T03:52:24.206Z,23.10
2019-05-02T03:54:53.738Z,20.77
2019-05-02T03:57:32.033Z,20.40
2019-05-02T03:59:54.579Z,19.10
2019-05-02T04:02:25.197Z,20.40
2019-05-02T04:05:00.492Z,17.10
2019-05-02T04:07:26.094Z,22.67
2019-05-02T04:09:55.688Z,22.00
2019-05-02T04:12:25.569Z,23.20
2019-05-02T04:14:56.001Z,19.30
2019-05-02T04:17:28.640Z,22.77
2019-05-02T04:19:57.809Z,19.00
2019-05-02T04:22:27.408Z,21.23
2019-05-02T04:24:57.285Z,27.57
2019-05-02T04:27:27.800Z,21.60
2019-05-02T04:30:09.751Z,23.20
2019-05-02T04:32:29.882Z,22.70
2019-05-02T04:34:59.434Z,24.53
2019-05-02T04:37:34.494Z,20.70
2019-05-02T04:40:03.192Z,24.23
2019-05-02T04:42:31.428Z,23.17
2019-05-02T04:45:21.170Z,23.67
2019-05-02T04:47:32.167Z,22.13
2019-05-02T04:50:10.215Z,23.50
2019-05-02T04:52:38.525Z,23.83
2019-05-02T04:55:14.827Z,26.05
2019-05-02T04:57:46.247Z,21.37
2019-05-02T05:00:11.712Z,19.00
2019-05-02T05:02:40.674Z,21.93
2019-05-02T05:05:10.283Z,26.12
2019-05-02T05:07:44.496Z,25.90
2019-05-02T05:10:11.173Z,30.53
2019-05-02T05:12:41.833Z,24.27
2019-05-02T05:15:13.363Z,23.02
2019-05-02T05:17:42.852Z,25.10
2019-05-02T05:20:15.650Z,22.73
2019-05-02T05:22:44.418Z,22.00
2019-05-02T05:25:21.330Z,23.90
2019-05-02T05:27:52.662Z,28.27
2019-05-02T05:30:21.777Z,26.10
2019-05-02T05:32:51.285Z,29.63
2019-05-02T05:35:20.833Z,29.40
2019-05-02T05:37:53.082Z,26.53
2019-05-02T05:40:22.504Z,31.07
2019-05-02T05:42:53.025Z,21.03
2019-05-02T05:45:23.177Z,27.95
2019-05-02T05:47:57.600Z,28.27
2019-05-02T05:50:24.960Z,27.90
2019-05-02T05:52:54.479Z,36.47
2019-05-02T05:55:24.690Z,25.73
2019-05-02T05:58:00.041Z,26.67
2019-05-02T06:00:27.659Z,29.32
2019-05-02T06:03:10.159Z,21.13
2019-05-02T06:05:33.245Z,28.30
2019-05-02T06:08:00.011Z,28.80
2019-05-02T06:10:29.634Z,23.30
2019-05-02T06:12:59.515Z,26.90
2019-05-02T06:15:29.174Z,24.25
2019-05-02T06:17:59.950Z,26.50
2019-05-02T06:20:30.538Z,25.27
2019-05-02T06:23:01.384Z,28.00
2019-05-02T06:25:34.150Z,30.67
2019-05-02T06:28:05.268Z,29.10
2019-05-02T06:30:34.593Z,28.90
2019-05-02T06:33:04.111Z,22.00
2019-05-02T06:35:33.646Z,26.90
2019-05-02T06:38:04.127Z,29.00
2019-05-02T06:40:33.650Z,25.40
2019-05-02T06:43:04.393Z,25.97
2019-05-02T06:45:37.714Z,29.70
2019-05-02T06:48:06.380Z,33.13
2019-05-02T06:50:39.030Z,26.43
2019-05-02T06:53:09.533Z,32.73
2019-05-02T06:55:38.741Z,24.60
2019-05-02T06:58:09.440Z,30.47
2019-05-02T07:00:55.630Z,26.20
2019-05-02T07:03:11.639Z,25.80
2019-05-02T07:05:41.230Z,26.73
2019-05-02T07:08:11.592Z,26.00
2019-05-02T07:10:44.965Z,29.07
2019-05-02T07:13:15.513Z,24.80
2019-05-02T07:15:59.211Z,27.70
2019-05-02T07:18:30.397Z,31.50
2019-05-02T07:21:00.003Z,25.73
2019-05-02T07:23:29.746Z,30.80
2019-05-02T07:26:00.425Z,23.70
2019-05-02T07:28:30.249Z,23.25
2019-05-02T07:31:00.525Z,24.90
2019-05-02T07:33:32.258Z,27.73
2019-05-02T07:36:01.894Z,30.37
2019-05-02T07:38:31.422Z,27.73
2019-05-02T07:41:02.033Z,22.63
2019-05-02T07:43:31.537Z,26.97
2019-05-02T07:46:01.657Z,30.90
2019-05-02T07:48:31.163Z,27.50
2019-05-02T07:51:02.101Z,27.13
2019-05-02T07:53:31.593Z,32.90
2019-05-02T07:56:01.207Z,27.10
2019-05-02T07:58:30.803Z,30.00
2019-05-02T08:01:00.384Z,33.00
2019-05-02T08:03:33.638Z,26.53
2019-05-02T08:06:02.299Z,31.70
2019-05-02T08:08:31.958Z,30.95
2019-05-02T08:11:03.193Z,29.47
2019-05-02T08:13:32.820Z,32.83
2019-05-02T08:16:02.343Z,31.77
2019-05-02T08:18:31.843Z,29.33
2019-05-02T08:21:01.475Z,28.03
2019-05-02T08:23:31.059Z,25.33
2019-05-02T08:26:00.601Z,31.67
2019-05-02T08:28:35.833Z,35.23
2019-05-02T08:31:05.346Z,36.17
2019-05-02T08:33:36.003Z,33.13
2019-05-02T08:36:05.663Z,33.02
2019-05-02T08:38:35.348Z,32.40
2019-05-02T08:41:04.969Z,32.47
2019-05-02T08:43:34.557Z,32.03
2019-05-02T08:46:09.341Z,28.83
2019-05-02T08:48:41.151Z,32.70
2019-05-02T08:51:07.439Z,33.92
2019-05-02T08:53:36.942Z,35.70
2019-05-02T08:56:06.699Z,29.30
2019-05-02T08:58:36.202Z,35.73
2019-05-02T09:01:09.156Z,38.20
2019-05-02T09:03:54.673Z,35.23
2019-05-02T09:06:08.169Z,36.93
2019-05-02T09:08:37.681Z,33.37
2019-05-02T09:11:07.224Z,34.40
2019-05-02T09:13:36.739Z,31.93
2019-05-02T09:16:06.411Z,33.83
2019-05-02T09:18:40.601Z,28.70
2019-05-02T09:21:07.140Z,29.43
2019-05-02T09:23:37.248Z,29.05
2019-05-02T09:26:06.806Z,34.33
2019-05-02T09:28:36.323Z,27.73
2019-05-02T09:31:07.119Z,26.93
2019-05-02T09:33:41.173Z,25.02
2019-05-02T09:36:07.873Z,32.40
2019-05-02T09:38:37.402Z,30.40
2019-05-02T09:41:16.098Z,26.07
2019-05-02T09:43:39.259Z,27.77
2019-05-02T09:46:13.006Z,26.17
2019-05-02T09:48:42.735Z,31.33
2019-05-02T09:51:17.453Z,30.90
2019-05-02T09:53:44.442Z,28.70
2019-05-02T09:56:14.000Z,30.23
2019-05-02T09:58:49.067Z,30.10
2019-05-02T10:01:28.461Z,31.20
2019-05-02T10:03:57.981Z,34.50
2019-05-02T10:06:27.491Z,35.60
2019-05-02T10:08:57.272Z,30.10
2019-05-02T10:11:26.777Z,30.68
2019-05-02T10:13:56.310Z,31.33
2019-05-02T10:16:27.471Z,26.37
2019-05-02T10:19:00.392Z,33.23
2019-05-02T10:21:28.320Z,30.53
2019-05-02T10:23:59.224Z,28.30
2019-05-02T10:26:29.138Z,28.07
2019-05-02T10:28:58.697Z,31.43
2019-05-02T10:31:33.399Z,30.37
2019-05-02T10:34:02.245Z,30.23
2019-05-02T10:36:32.741Z,26.97
2019-05-02T10:39:02.432Z,33.40
2019-05-02T10:41:39.622Z,30.23
2019-05-02T10:44:04.740Z,24.57
2019-05-02T10:46:41.596Z,28.32
2019-05-02T10:49:22.724Z,27.73
2019-05-02T10:51:53.945Z,27.57
2019-05-02T10:54:27.873Z,29.43
2019-05-02T10:56:55.506Z,30.70
2019-05-02T10:59:25.128Z,26.17
2019-05-02T11:02:22.122Z,28.27
2019-05-02T11:04:54.653Z,28.80
2019-05-02T11:07:26.507Z,34.40
2019-05-02T11:09:57.235Z,28.80
2019-05-02T11:12:46.113Z,28.00
2019-05-02T11:15:32.615Z,27.77
2019-05-02T11:18:03.163Z,33.80
2019-05-02T11:20:32.756Z,30.87
2019-05-02T11:23:02.785Z,37.17
2019-05-02T11:25:32.294Z,37.00
2019-05-02T11:28:06.831Z,32.37
2019-05-02T11:30:33.229Z,35.38
2019-05-02T11:33:03.159Z,29.07
2019-05-02T11:35:33.868Z,29.63
2019-05-02T11:38:03.773Z,30.83
2019-05-02T11:40:33.290Z,33.77
2019-05-02T11:43:06.773Z,39.73
2019-05-02T11:45:34.947Z,36.38
2019-05-02T11:48:09.107Z,43.03
2019-05-02T11:50:35.764Z,32.37
2019-05-02T11:53:09.120Z,31.53
2019-05-02T11:55:36.621Z,32.70
2019-05-02T11:58:08.150Z,35.27
2019-05-02T12:00:39.744Z,33.90
2019-05-02T12:03:14.021Z,33.55
2019-05-02T12:05:44.049Z,35.38
2019-05-02T12:08:13.534Z,35.60
2019-05-02T12:10:43.142Z,32.43
2019-05-02T12:13:15.971Z,28.90
2019-05-02T12:15:44.502Z,38.47
2019-05-02T12:18:14.028Z,29.10
2019-05-02T12:20:43.561Z,35.90
2019-05-02T12:23:13.206Z,39.03
2019-05-02T12:25:42.751Z,36.30
2019-05-02T12:28:12.302Z,34.47
2019-05-02T12:30:42.135Z,34.43
2019-05-02T12:33:12.529Z,33.40
2019-05-02T12:35:43.217Z,39.00
2019-05-02T12:38:12.957Z,34.57
2019-05-02T12:40:44.042Z,31.07
2019-05-02T12:43:13.545Z,36.60
2019-05-02T12:45:44.069Z,31.17
2019-05-02T12:48:13.584Z,30.37
2019-05-02T12:50:43.546Z,37.90
2019-05-02T12:53:13.048Z,32.70
2019-05-02T12:55:42.563Z,29.97
2019-05-02T12:58:13.259Z,38.00
2019-05-02T13:00:43.277Z,28.20
2019-05-02T13:03:34.579Z,41.80
2019-05-02T13:06:04.120Z,31.73
2019-05-02T13:08:36.876Z,33.20
2019-05-02T13:11:17.920Z,34.50
2019-05-02T13:13:48.170Z,32.70
2019-05-02T13:16:18.289Z,32.15
2019-05-02T13:18:48.182Z,37.05
2019-05-02T13:21:23.613Z,34.37
2019-05-02T13:24:13.506Z,37.90
2019-05-02T13:26:42.775Z,32.07
2019-05-02T13:29:16.983Z,33.17
2019-05-02T13:32:18.768Z,36.13
2019-05-02T13:34:53.946Z,30.27
2019-05-02T13:37:24.966Z,38.53
2019-05-02T13:40:02.683Z,35.63
2019-05-02T13:42:33.825Z,36.07
2019-05-02T13:45:10.255Z,34.20
2019-05-02T13:47:39.879Z,34.70
2019-05-02T13:50:10.005Z,37.10
2019-05-02T13:52:39.596Z,34.60
2019-05-02T13:55:11.823Z,34.33
2019-05-02T13:57:46.902Z,30.70
2019-05-02T14:00:16.552Z,33.60
2019-05-02T14:02:46.573Z,32.40
2019-05-02T14:05:16.678Z,31.57
2019-05-02T14:07:55.700Z,31.70
2019-05-02T14:10:26.136Z,36.70
2019-05-02T14:12:58.444Z,37.03
2019-05-02T14:15:37.500Z,33.93
2019-05-02T14:18:07.165Z,38.07
2019-05-02T14:20:37.499Z,36.30
2019-05-02T14:23:07.098Z,36.83
2019-05-02T14:25:36.580Z,44.83
2019-05-02T14:28:06.175Z,40.90
2019-05-02T14:30:40.020Z,45.13
2019-05-02T14:33:13.168Z,40.53
2019-05-02T14:35:42.725Z,39.90
2019-05-02T14:38:16.054Z,37.50
2019-05-02T14:41:09.378Z,43.40
2019-05-02T14:43:56.042Z,40.47
2019-05-02T14:46:35.362Z,42.40
2019-05-02T14:48:57.739Z,36.57
2019-05-02T14:51:28.062Z,43.93
2019-05-02T14:54:03.659Z,44.50
2019-05-02T14:56:46.293Z,50.13
2019-05-02T14:59:17.892Z,48.67
2019-05-02T15:01:43.023Z,43.67
2019-05-02T15:04:13.590Z,42.38
2019-05-02T15:06:47.322Z,45.67
2019-05-02T15:09:16.675Z,48.43
2019-05-02T15:11:58.043Z,46.77
2019-05-02T15:14:32.899Z,44.87
2019-05-02T15:17:03.049Z,48.57
2019-05-02T15:19:33.180Z,48.00
2019-05-02T15:22:02.923Z,54.13
2019-05-02T15:24:36.092Z,41.50
2019-05-02T15:27:11.425Z,44.60
2019-05-02T15:29:34.889Z,47.10
2019-05-02T15:32:25.540Z,40.45
2019-05-02T15:35:13.092Z,44.40
2019-05-02T15:37:44.266Z,49.17
2019-05-02T15:42:52.214Z,46.17
2019-05-02T15:45:23.817Z,38.98
2019-05-02T15:47:53.251Z,41.88
2019-05-02T15:50:25.516Z,36.37
2019-05-02T15:53:02.755Z,37.47
2019-05-02T15:55:32.417Z,32.83
2019-05-02T15:58:03.574Z,28.43
2019-05-02T16:00:37.764Z,31.03
2019-05-02T16:03:07.328Z,26.70
2019-05-02T16:05:41.220Z,23.80
2019-05-02T16:08:08.814Z,24.30
2019-05-02T16:10:39.966Z,21.40
2019-05-02T16:13:13.481Z,24.87
2019-05-02T16:15:42.787Z,21.37
2019-05-02T16:18:12.844Z,19.77
2019-05-02T16:21:04.221Z,19.90
2019-05-02T16:23:29.447Z,22.80
2019-05-02T16:25:56.807Z,16.50
2019-05-02T16:28:25.400Z,18.30
2019-05-02T16:30:57.015Z,19.47
2019-05-02T16:33:26.608Z,21.40
2019-05-02T16:35:56.137Z,20.63
2019-05-02T16:38:30.921Z,16.20
2019-05-02T16:40:56.995Z,19.40
2019-05-02T16:43:29.106Z,23.50
2019-05-02T16:45:59.307Z,19.73
2019-05-02T16:48:30.566Z,20.70
2019-05-02T16:51:02.189Z,20.67
2019-05-02T16:53:33.397Z,19.93
2019-05-02T16:56:06.992Z,22.13
2019-05-02T16:58:37.981Z,26.50
2019-05-02T17:01:06.238Z,22.75
2019-05-02T17:03:35.785Z,20.87
2019-05-02T17:06:06.528Z,26.77
2019-05-02T17:08:49.565Z,23.67
2019-05-02T17:11:27.804Z,23.70
2019-05-02T17:13:54.327Z,21.40
2019-05-02T17:16:24.005Z,19.80
2019-05-02T17:18:56.567Z,24.77
2019-05-02T17:21:27.019Z,24.13
2019-05-02T17:23:55.910Z,21.37
2019-05-02T17:26:25.518Z,30.10
2019-05-02T17:28:55.016Z,24.17
2019-05-02T17:31:24.754Z,24.53
2019-05-02T17:33:54.942Z,22.53
2019-05-02T17:36:28.666Z,23.98
2019-05-02T17:38:59.343Z,26.37
2019-05-02T17:41:27.057Z,26.10
2019-05-02T17:43:59.041Z,24.23
2019-05-02T17:46:27.811Z,19.63
2019-05-02T17:48:57.347Z,17.03
2019-05-02T17:51:37.725Z,18.33
2019-05-02T17:54:07.760Z,23.43
2019-05-02T17:56:37.309Z,15.83
2019-05-02T17:59:06.852Z,18.00
2019-05-02T18:01:41.660Z,18.90
2019-05-02T18:04:14.724Z,22.80
2019-05-02T18:06:42.036Z,21.03
2019-05-02T18:09:12.264Z,20.83
2019-05-02T18:11:42.393Z,21.93
2019-05-02T18:14:19.529Z,22.20
2019-05-02T18:16:47.048Z,24.03
2019-05-02T18:19:15.986Z,22.50
2019-05-02T18:21:46.122Z,17.48
2019-05-02T18:24:15.670Z,20.93
2019-05-02T18:26:45.190Z,18.52
2019-05-02T18:29:15.501Z,13.63
2019-05-02T18:31:47.637Z,11.00
2019-05-02T18:34:23.705Z,9.95
2019-05-02T18:36:48.200Z,10.07
2019-05-02T18:39:17.876Z,11.07
2019-05-02T18:41:47.375Z,9.20
2019-05-02T18:44:18.374Z,7.80
2019-05-02T18:46:48.272Z,8.40
2019-05-02T18:49:22.024Z,9.20
2019-05-02T18:51:53.754Z,6.65
2019-05-02T18:54:21.691Z,6.58
2019-05-02T18:56:55.254Z,13.27
2019-05-02T18:59:26.968Z,8.03
2019-05-02T19:01:56.200Z,10.13
2019-05-02T19:04:30.110Z,5.47
2019-05-02T19:06:56.417Z,5.83
2019-05-02T19:09:30.054Z,8.93
2019-05-02T19:12:05.238Z,10.63
2019-05-02T19:14:28.613Z,8.97
2019-05-02T19:17:02.925Z,9.27
2019-05-02T19:19:35.207Z,8.00
2019-05-02T19:22:02.615Z,11.28
2019-05-02T19:24:36.421Z,6.63
2019-05-02T19:27:04.212Z,9.30
2019-05-02T19:29:33.853Z,7.60
2019-05-02T19:32:06.347Z,9.58
2019-05-02T19:34:35.936Z,11.10
2019-05-02T19:37:05.521Z,12.63
2019-05-02T19:39:42.071Z,10.10
2019-05-02T19:42:07.422Z,9.60
2019-05-02T19:44:36.930Z,12.17
2019-05-02T19:47:08.440Z,12.20
2019-05-02T19:49:39.064Z,6.80
2019-05-02T19:52:08.732Z,6.10
2019-05-02T19:54:39.675Z,6.20
2019-05-02T19:57:11.711Z,9.27
2019-05-02T19:59:43.055Z,8.53
2019-05-02T20:02:12.381Z,11.83
2019-05-02T20:04:42.632Z,4.90
2019-05-02T20:07:13.142Z,7.43
2019-05-02T20:09:46.009Z,4.70
2019-05-02T20:12:15.723Z,8.40
2019-05-02T20:14:47.543Z,4.00
2019-05-02T20:17:20.311Z,5.58
2019-05-02T20:19:52.759Z,2.57
2019-05-02T20:22:22.458Z,5.93
2019-05-02T20:25:00.134Z,4.20
2019-05-02T20:27:24.232Z,3.10
2019-05-02T20:29:53.849Z,4.53
2019-05-02T20:32:23.365Z,5.43
2019-05-02T20:34:53.308Z,3.50
2019-05-02T20:37:22.817Z,3.87
2019-05-02T20:39:52.449Z,2.83
2019-05-02T20:42:22.186Z,6.83
2019-05-02T20:44:52.810Z,2.57
2019-05-02T20:47:24.832Z,9.93
2019-05-02T20:49:54.520Z,2.87
2019-05-02T20:52:24.110Z,2.73
2019-05-02T20:54:53.637Z,4.80
2019-05-02T20:57:23.217Z,2.70
2019-05-02T20:59:53.046Z,3.20
2019-05-02T21:02:23.695Z,2.73
2019-05-02T21:04:53.206Z,4.60
2019-05-02T21:07:45.133Z,3.90
2019-05-02T21:10:25.091Z,2.97
2019-05-02T21:12:54.667Z,4.27
2019-05-02T21:15:24.281Z,5.13
2019-05-02T21:17:53.786Z,3.13
2019-05-02T21:20:24.433Z,2.80
2019-05-02T21:22:54.067Z,6.53
2019-05-02T21:25:23.633Z,3.17
2019-05-02T21:27:53.230Z,3.00
2019-05-02T21:30:26.368Z,3.67
2019-05-02T21:32:55.971Z,9.83
2019-05-02T21:35:25.534Z,8.03
2019-05-02T21:37:55.205Z,3.83
2019-05-02T21:40:25.882Z,4.13
2019-05-02T21:42:55.585Z,4.60
2019-05-02T21:45:25.469Z,4.10
2019-05-02T21:47:55.060Z,2.80
2019-05-02T21:50:33.132Z,3.40
2019-05-02T21:53:23.044Z,10.18
2019-05-02T21:56:17.452Z,4.90
2019-05-02T21:59:04.116Z,6.30
2019-05-02T22:01:35.515Z,3.10
2019-05-02T22:04:05.232Z,3.80
2019-05-02T22:06:34.782Z,4.40
2019-05-02T22:09:06.655Z,3.98
2019-05-02T22:11:38.281Z,3.87
2019-05-02T22:14:07.845Z,4.10
2019-05-02T22:16:37.426Z,5.42
2019-05-02T22:19:07.206Z,3.73
2019-05-02T22:21:36.711Z,7.70
2019-05-02T22:24:11.244Z,3.35
2019-05-02T22:26:37.415Z,2.97
2019-05-02T22:29:06.996Z,2.70
2019-05-02T22:31:36.499Z,2.40
2019-05-02T22:34:06.093Z,4.77
2019-05-02T22:36:35.618Z,4.63
2019-05-02T22:39:31.542Z,2.30
2019-05-02T22:42:01.996Z,3.20
2019-05-02T22:44:32.484Z,4.97
2019-05-02T22:47:03.528Z,7.22
2019-05-02T22:49:33.518Z,4.17
2019-05-02T22:52:03.666Z,3.47
2019-05-02T22:54:34.060Z,3.80
2019-05-02T22:57:03.972Z,5.60
2019-05-02T22:59:33.786Z,4.13
2019-05-02T23:02:03.636Z,4.10
2019-05-02T23:04:33.604Z,3.37
2019-05-02T23:07:03.954Z,6.33
2019-05-02T23:09:33.601Z,7.72
2019-05-02T23:12:04.452Z,5.92
2019-05-02T23:14:33.958Z,8.90
2019-05-02T23:17:03.624Z,4.30
2019-05-02T23:19:33.734Z,5.67
2019-05-02T23:22:03.807Z,4.45
2019-05-02T23:24:52.023Z,3.20
2019-05-02T23:27:28.188Z,4.12
2019-05-02T23:29:57.769Z,4.60
2019-05-02T23:32:27.484Z,5.53
2019-05-02T23:34:57.086Z,4.90
2019-05-02T23:37:26.602Z,4.70
2019-05-02T23:39:56.112Z,2.40
2019-05-02T23:42:25.692Z,3.95
2019-05-02T23:44:55.209Z,3.50
2019-05-02T23:47:24.705Z,4.80
2019-05-02T23:49:54.208Z,4.80
2019-05-02T23:52:23.808Z,3.25
2019-05-02T23:54:53.358Z,4.47
2019-05-02T23:57:23.105Z,4.10
2019-05-02T23:59:52.569Z,3.57
